MGGT/GUA METAR and TAF weather

Enter ICAO airport designator
Station Type Date Time Source
MGGT METAR 2020/09/21 08:00 UTC NOAA

MGGT 210800Z 01010KT 9999 BKN013 19/17 Q1024 A3024


Station Type Date Time Source
MGGT Decoded METAR 2020/09/21 08:00 UTC NOAA

Guatemala Aeropuertola Aurora , Guatemala (MGGT) 14-35N 090-31W 1489M
Sep 21, 2020 - 04:00 AM EDT / 2020.09.21 0800 UTC
Wind: from the N (010 degrees) at 12 MPH (10 KT):0
Visibility: greater than 7 mile(s):0
Sky conditions: mostly cloudy
Temperature: 66 F (19 C)
Dew Point: 62 F (17 C)
Relative Humidity: 88%
Pressure (altimeter): 30.24 in. Hg (1024 hPa)
ob: MGGT 210800Z 01010KT 9999 BKN013 19/17 Q1024 A3024
cycle: 8

Station Type Date Time Source
MGGT TAF 2020/09/21 06:37 UTC NOAA

TAF MGGT 210500Z 2106/2206 03012KT 9999 SCT014 TX28/2120Z TN16/2112Z PROB30
TEMPO 2106/2116 36008KT 8000 BKN012
BECMG 2116/2118 FEW020 PROB40
TEMPO 2120/2204 18006KT 8000 VCTSRA SCT020TCU FEW025CB
BECMG 2200/2202 FEW016

Example: see airport list